sensor_id;sensor_type;location;lat;lon;timestamp;P1;durP1;ratioP1;P2;durP2;ratioP2
63801;SDS011;49949;43.060;25.624;2023-11-21T00:01:18;46.78;;;21.45;;
63801;SDS011;49949;43.060;25.624;2023-11-21T00:03:44;49.42;;;21.08;;
63801;SDS011;49949;43.060;25.624;2023-11-21T00:06:10;56.97;;;24.33;;
63801;SDS011;49949;43.060;25.624;2023-11-21T00:08:36;45.45;;;21.85;;
63801;SDS011;49949;43.060;25.624;2023-11-21T00:11:02;36.58;;;19.02;;
63801;SDS011;49949;43.060;25.624;2023-11-21T00:13:30;48.42;;;23.02;;
63801;SDS011;49949;43.060;25.624;2023-11-21T00:15:56;46.15;;;23.23;;
63801;SDS011;49949;43.060;25.624;2023-11-21T00:18:22;44.10;;;23.42;;
63801;SDS011;49949;43.060;25.624;2023-11-21T00:20:48;49.10;;;20.88;;
63801;SDS011;49949;43.060;25.624;2023-11-21T00:23:13;48.15;;;21.75;;
63801;SDS011;49949;43.060;25.624;2023-11-21T00:25:39;62.47;;;21.85;;
63801;SDS011;49949;43.060;25.624;2023-11-21T00:28:05;45.90;;;21.75;;
63801;SDS011;49949;43.060;25.624;2023-11-21T00:30:31;45.45;;;21.75;;
63801;SDS011;49949;43.060;25.624;2023-11-21T00:32:57;52.45;;;22.00;;
63801;SDS011;49949;43.060;25.624;2023-11-21T00:35:22;49.00;;;23.20;;
63801;SDS011;49949;43.060;25.624;2023-11-21T00:37:48;61.75;;;22.85;;
63801;SDS011;49949;43.060;25.624;2023-11-21T00:40:15;49.53;;;23.27;;
63801;SDS011;49949;43.060;25.624;2023-11-21T00:42:41;56.63;;;24.65;;
63801;SDS011;49949;43.060;25.624;2023-11-21T00:45:07;55.28;;;24.73;;
63801;SDS011;49949;43.060;25.624;2023-11-21T00:47:33;54.47;;;24.92;;
63801;SDS011;49949;43.060;25.624;2023-11-21T00:49:59;50.03;;;24.27;;
63801;SDS011;49949;43.060;25.624;2023-11-21T00:52:24;54.45;;;26.75;;
63801;SDS011;49949;43.060;25.624;2023-11-21T00:54:50;59.38;;;23.58;;
63801;SDS011;49949;43.060;25.624;2023-11-21T00:57:16;44.92;;;22.88;;
63801;SDS011;49949;43.060;25.624;2023-11-21T00:59:41;51.45;;;22.38;;
63801;SDS011;49949;43.060;25.624;2023-11-21T01:02:07;46.25;;;21.38;;
63801;SDS011;49949;43.060;25.624;2023-11-21T01:04:35;51.28;;;23.83;;
63801;SDS011;49949;43.060;25.624;2023-11-21T01:07:01;51.95;;;23.73;;
63801;SDS011;49949;43.060;25.624;2023-11-21T01:09:27;46.42;;;22.42;;
63801;SDS011;49949;43.060;25.624;2023-11-21T01:11:53;50.97;;;21.45;;
63801;SDS011;49949;43.060;25.624;2023-11-21T01:14:19;50.42;;;22.70;;
63801;SDS011;49949;43.060;25.624;2023-11-21T01:16:44;53.83;;;22.05;;
63801;SDS011;49949;43.060;25.624;2023-11-21T01:19:10;44.70;;;21.60;;
63801;SDS011;49949;43.060;25.624;2023-11-21T01:21:36;53.05;;;19.75;;
63801;SDS011;49949;43.060;25.624;2023-11-21T01:24:02;40.30;;;19.33;;
63801;SDS011;49949;43.060;25.624;2023-11-21T01:26:28;46.05;;;18.95;;
63801;SDS011;49949;43.060;25.624;2023-11-21T01:28:54;40.80;;;18.35;;
63801;SDS011;49949;43.060;25.624;2023-11-21T01:31:20;45.25;;;20.83;;
63801;SDS011;49949;43.060;25.624;2023-11-21T01:33:46;49.88;;;22.17;;
63801;SDS011;49949;43.060;25.624;2023-11-21T01:36:11;51.38;;;24.55;;
63801;SDS011;49949;43.060;25.624;2023-11-21T01:38:37;52.72;;;24.35;;
63801;SDS011;49949;43.060;25.624;2023-11-21T01:41:03;57.75;;;23.50;;
63801;SDS011;49949;43.060;25.624;2023-11-21T01:43:30;55.60;;;24.25;;
63801;SDS011;49949;43.060;25.624;2023-11-21T01:45:57;53.00;;;24.55;;
63801;SDS011;49949;43.060;25.624;2023-11-21T01:48:23;46.78;;;23.45;;
63801;SDS011;49949;43.060;25.624;2023-11-21T01:50:51;52.03;;;24.55;;
63801;SDS011;49949;43.060;25.624;2023-11-21T01:53:17;42.42;;;19.35;;
63801;SDS011;49949;43.060;25.624;2023-11-21T01:55:43;36.00;;;18.35;;
63801;SDS011;49949;43.060;25.624;2023-11-21T01:58:11;35.53;;;18.70;;
63801;SDS011;49949;43.060;25.624;2023-11-21T02:00:39;34.67;;;18.88;;
63801;SDS011;49949;43.060;25.624;2023-11-21T02:03:05;40.47;;;18.05;;
63801;SDS011;49949;43.060;25.624;2023-11-21T02:05:32;33.97;;;18.55;;
63801;SDS011;49949;43.060;25.624;2023-11-21T02:07:58;35.03;;;17.30;;
63801;SDS011;49949;43.060;25.624;2023-11-21T02:10:23;36.60;;;17.80;;
63801;SDS011;49949;43.060;25.624;2023-11-21T02:12:49;40.03;;;18.00;;
63801;SDS011;49949;43.060;25.624;2023-11-21T02:15:15;37.42;;;18.23;;
63801;SDS011;49949;43.060;25.624;2023-11-21T02:17:45;35.20;;;17.65;;
63801;SDS011;49949;43.060;25.624;2023-11-21T02:20:12;42.10;;;18.65;;
63801;SDS011;49949;43.060;25.624;2023-11-21T02:22:42;37.40;;;18.80;;
63801;SDS011;49949;43.060;25.624;2023-11-21T02:25:31;42.35;;;18.90;;
63801;SDS011;49949;43.060;25.624;2023-11-21T02:27:59;36.65;;;17.55;;
63801;SDS011;49949;43.060;25.624;2023-11-21T02:30:26;40.83;;;18.73;;
63801;SDS011;49949;43.060;25.624;2023-11-21T02:32:56;41.93;;;18.03;;
63801;SDS011;49949;43.060;25.624;2023-11-21T02:35:22;36.90;;;18.27;;
63801;SDS011;49949;43.060;25.624;2023-11-21T02:37:51;39.17;;;19.50;;
63801;SDS011;49949;43.060;25.624;2023-11-21T02:40:17;53.50;;;18.02;;
63801;SDS011;49949;43.060;25.624;2023-11-21T02:42:46;36.72;;;20.08;;
63801;SDS011;49949;43.060;25.624;2023-11-21T02:45:15;36.92;;;20.40;;
63801;SDS011;49949;43.060;25.624;2023-11-21T02:47:44;42.75;;;19.85;;
63801;SDS011;49949;43.060;25.624;2023-11-21T02:50:10;47.65;;;19.75;;
63801;SDS011;49949;43.060;25.624;2023-11-21T02:52:36;35.75;;;18.67;;
63801;SDS011;49949;43.060;25.624;2023-11-21T02:55:02;39.17;;;18.02;;
63801;SDS011;49949;43.060;25.624;2023-11-21T02:57:28;38.53;;;17.35;;
63801;SDS011;49949;43.060;25.624;2023-11-21T02:59:54;47.60;;;22.48;;
63801;SDS011;49949;43.060;25.624;2023-11-21T03:02:20;45.65;;;21.73;;
63801;SDS011;49949;43.060;25.624;2023-11-21T03:04:46;37.95;;;17.95;;
63801;SDS011;49949;43.060;25.624;2023-11-21T03:07:14;38.45;;;17.55;;
63801;SDS011;49949;43.060;25.624;2023-11-21T03:09:40;33.65;;;18.23;;
63801;SDS011;49949;43.060;25.624;2023-11-21T03:12:06;44.60;;;18.95;;
63801;SDS011;49949;43.060;25.624;2023-11-21T03:14:32;45.10;;;18.30;;
63801;SDS011;49949;43.060;25.624;2023-11-21T03:16:57;38.40;;;18.73;;
63801;SDS011;49949;43.060;25.624;2023-11-21T03:19:23;38.05;;;19.58;;
63801;SDS011;49949;43.060;25.624;2023-11-21T03:21:49;39.15;;;18.60;;
63801;SDS011;49949;43.060;25.624;2023-11-21T03:24:14;32.55;;;17.45;;
63801;SDS011;49949;43.060;25.624;2023-11-21T03:26:44;42.08;;;19.50;;
63801;SDS011;49949;43.060;25.624;2023-11-21T03:29:10;39.33;;;19.90;;
63801;SDS011;49949;43.060;25.624;2023-11-21T03:31:36;45.75;;;19.23;;
63801;SDS011;49949;43.060;25.624;2023-11-21T03:34:01;58.70;;;26.92;;
63801;SDS011;49949;43.060;25.624;2023-11-21T03:36:27;38.80;;;18.52;;
63801;SDS011;49949;43.060;25.624;2023-11-21T03:38:53;54.53;;;21.02;;
63801;SDS011;49949;43.060;25.624;2023-11-21T03:41:18;48.10;;;20.08;;
63801;SDS011;49949;43.060;25.624;2023-11-21T03:43:44;52.58;;;21.77;;
63801;SDS011;49949;43.060;25.624;2023-11-21T03:46:10;55.33;;;20.80;;
63801;SDS011;49949;43.060;25.624;2023-11-21T03:48:36;48.05;;;21.42;;
63801;SDS011;49949;43.060;25.624;2023-11-21T03:51:02;48.65;;;21.48;;
63801;SDS011;49949;43.060;25.624;2023-11-21T03:53:28;39.90;;;17.98;;
63801;SDS011;49949;43.060;25.624;2023-11-21T03:55:54;39.42;;;20.00;;
63801;SDS011;49949;43.060;25.624;2023-11-21T03:58:19;51.72;;;20.52;;
63801;SDS011;49949;43.060;25.624;2023-11-21T04:00:46;43.28;;;19.98;;
63801;SDS011;49949;43.060;25.624;2023-11-21T04:03:13;46.17;;;19.73;;
63801;SDS011;49949;43.060;25.624;2023-11-21T04:05:40;37.85;;;18.45;;
63801;SDS011;49949;43.060;25.624;2023-11-21T04:08:06;40.15;;;18.77;;
63801;SDS011;49949;43.060;25.624;2023-11-21T04:10:32;43.45;;;19.73;;
63801;SDS011;49949;43.060;25.624;2023-11-21T04:12:57;44.55;;;18.15;;
63801;SDS011;49949;43.060;25.624;2023-11-21T04:15:23;45.40;;;19.45;;
63801;SDS011;49949;43.060;25.624;2023-11-21T04:17:49;53.35;;;20.48;;
63801;SDS011;49949;43.060;25.624;2023-11-21T04:20:15;46.30;;;19.88;;
63801;SDS011;49949;43.060;25.624;2023-11-21T04:22:41;52.80;;;18.98;;
63801;SDS011;49949;43.060;25.624;2023-11-21T04:25:12;49.20;;;20.83;;
63801;SDS011;49949;43.060;25.624;2023-11-21T04:27:39;36.55;;;18.92;;
63801;SDS011;49949;43.060;25.624;2023-11-21T04:30:08;45.10;;;19.73;;
63801;SDS011;49949;43.060;25.624;2023-11-21T04:32:35;46.50;;;18.80;;
63801;SDS011;49949;43.060;25.624;2023-11-21T04:35:01;45.45;;;20.60;;
63801;SDS011;49949;43.060;25.624;2023-11-21T04:37:27;55.78;;;20.20;;
63801;SDS011;49949;43.060;25.624;2023-11-21T04:39:53;60.88;;;21.30;;
63801;SDS011;49949;43.060;25.624;2023-11-21T04:42:18;39.22;;;20.52;;
63801;SDS011;49949;43.060;25.624;2023-11-21T04:44:44;50.20;;;20.27;;
63801;SDS011;49949;43.060;25.624;2023-11-21T04:47:10;54.53;;;19.52;;
63801;SDS011;49949;43.060;25.624;2023-11-21T04:49:36;40.45;;;18.98;;
63801;SDS011;49949;43.060;25.624;2023-11-21T04:52:01;46.50;;;20.25;;
63801;SDS011;49949;43.060;25.624;2023-11-21T04:54:28;49.78;;;20.15;;
63801;SDS011;49949;43.060;25.624;2023-11-21T04:56:55;44.08;;;19.33;;
63801;SDS011;49949;43.060;25.624;2023-11-21T04:59:21;69.57;;;21.15;;
63801;SDS011;49949;43.060;25.624;2023-11-21T05:01:50;52.25;;;21.73;;
63801;SDS011;49949;43.060;25.624;2023-11-21T05:04:15;60.90;;;20.38;;
63801;SDS011;49949;43.060;25.624;2023-11-21T05:06:41;60.55;;;20.17;;
63801;SDS011;49949;43.060;25.624;2023-11-21T05:09:07;56.70;;;21.58;;
63801;SDS011;49949;43.060;25.624;2023-11-21T05:11:36;56.15;;;19.48;;
63801;SDS011;49949;43.060;25.624;2023-11-21T05:14:03;68.50;;;19.27;;
63801;SDS011;49949;43.060;25.624;2023-11-21T05:16:30;64.45;;;18.95;;
63801;SDS011;49949;43.060;25.624;2023-11-21T05:18:56;48.42;;;19.13;;
63801;SDS011;49949;43.060;25.624;2023-11-21T05:21:25;52.70;;;17.88;;
63801;SDS011;49949;43.060;25.624;2023-11-21T05:23:56;61.78;;;19.35;;
63801;SDS011;49949;43.060;25.624;2023-11-21T05:26:22;56.90;;;19.17;;
63801;SDS011;49949;43.060;25.624;2023-11-21T05:28:47;48.85;;;18.00;;
63801;SDS011;49949;43.060;25.624;2023-11-21T05:31:13;48.75;;;17.17;;
63801;SDS011;49949;43.060;25.624;2023-11-21T05:33:39;62.83;;;19.27;;
63801;SDS011;49949;43.060;25.624;2023-11-21T05:36:06;58.58;;;19.23;;
63801;SDS011;49949;43.060;25.624;2023-11-21T05:38:33;48.50;;;18.27;;
63801;SDS011;49949;43.060;25.624;2023-11-21T05:41:00;50.97;;;18.67;;
63801;SDS011;49949;43.060;25.624;2023-11-21T05:43:26;46.13;;;19.02;;
63801;SDS011;49949;43.060;25.624;2023-11-21T05:45:53;50.08;;;18.83;;
63801;SDS011;49949;43.060;25.624;2023-11-21T05:48:19;46.92;;;18.70;;
63801;SDS011;49949;43.060;25.624;2023-11-21T05:50:46;53.10;;;18.00;;
63801;SDS011;49949;43.060;25.624;2023-11-21T05:53:13;44.58;;;18.50;;
63801;SDS011;49949;43.060;25.624;2023-11-21T05:55:40;52.78;;;18.13;;
63801;SDS011;49949;43.060;25.624;2023-11-21T05:58:07;48.97;;;20.15;;
63801;SDS011;49949;43.060;25.624;2023-11-21T06:00:33;51.10;;;18.25;;
63801;SDS011;49949;43.060;25.624;2023-11-21T06:02:58;61.28;;;18.42;;
63801;SDS011;49949;43.060;25.624;2023-11-21T06:05:25;55.63;;;20.15;;
63801;SDS011;49949;43.060;25.624;2023-11-21T06:07:52;63.60;;;22.00;;
63801;SDS011;49949;43.060;25.624;2023-11-21T06:10:19;68.93;;;22.13;;
63801;SDS011;49949;43.060;25.624;2023-11-21T06:12:46;52.47;;;20.27;;
63801;SDS011;49949;43.060;25.624;2023-11-21T06:15:12;65.50;;;20.55;;
63801;SDS011;49949;43.060;25.624;2023-11-21T06:17:38;51.20;;;18.45;;
63801;SDS011;49949;43.060;25.624;2023-11-21T06:20:08;53.55;;;20.80;;
63801;SDS011;49949;43.060;25.624;2023-11-21T06:22:40;59.10;;;21.38;;
63801;SDS011;49949;43.060;25.624;2023-11-21T06:25:07;59.30;;;19.80;;
63801;SDS011;49949;43.060;25.624;2023-11-21T06:27:38;60.10;;;19.85;;
63801;SDS011;49949;43.060;25.624;2023-11-21T06:30:05;41.60;;;14.50;;
63801;SDS011;49949;43.060;25.624;2023-11-21T06:32:31;61.70;;;21.10;;
63801;SDS011;49949;43.060;25.624;2023-11-21T06:34:57;54.92;;;22.88;;
63801;SDS011;49949;43.060;25.624;2023-11-21T06:37:25;56.80;;;22.80;;
63801;SDS011;49949;43.060;25.624;2023-11-21T06:39:52;52.40;;;20.55;;
63801;SDS011;49949;43.060;25.624;2023-11-21T06:42:18;57.72;;;20.48;;
63801;SDS011;49949;43.060;25.624;2023-11-21T06:44:47;45.65;;;20.02;;
63801;SDS011;49949;43.060;25.624;2023-11-21T06:47:13;80.90;;;24.08;;
63801;SDS011;49949;43.060;25.624;2023-11-21T06:49:41;76.05;;;26.50;;
63801;SDS011;49949;43.060;25.624;2023-11-21T06:52:07;93.13;;;35.15;;
63801;SDS011;49949;43.060;25.624;2023-11-21T06:54:33;140.48;;;33.08;;
63801;SDS011;49949;43.060;25.624;2023-11-21T06:56:59;100.95;;;29.27;;
63801;SDS011;49949;43.060;25.624;2023-11-21T06:59:28;92.38;;;31.15;;
63801;SDS011;49949;43.060;25.624;2023-11-21T07:01:54;136.68;;;33.67;;
63801;SDS011;49949;43.060;25.624;2023-11-21T07:04:20;127.15;;;48.72;;
63801;SDS011;49949;43.060;25.624;2023-11-21T07:06:46;125.72;;;45.67;;
63801;SDS011;49949;43.060;25.624;2023-11-21T07:09:12;157.13;;;48.95;;
63801;SDS011;49949;43.060;25.624;2023-11-21T07:11:38;141.02;;;39.65;;
63801;SDS011;49949;43.060;25.624;2023-11-21T07:14:04;112.97;;;33.58;;
63801;SDS011;49949;43.060;25.624;2023-11-21T07:16:34;132.25;;;34.17;;
63801;SDS011;49949;43.060;25.624;2023-11-21T07:19:02;113.18;;;29.35;;
63801;SDS011;49949;43.060;25.624;2023-11-21T07:21:32;94.57;;;25.70;;
63801;SDS011;49949;43.060;25.624;2023-11-21T07:23:59;113.03;;;26.13;;
63801;SDS011;49949;43.060;25.624;2023-11-21T07:26:26;105.90;;;25.25;;
63801;SDS011;49949;43.060;25.624;2023-11-21T07:28:52;105.07;;;28.05;;
63801;SDS011;49949;43.060;25.624;2023-11-21T07:31:18;121.82;;;28.48;;
63801;SDS011;49949;43.060;25.624;2023-11-21T07:33:44;116.03;;;29.38;;
63801;SDS011;49949;43.060;25.624;2023-11-21T07:36:14;130.27;;;32.70;;
63801;SDS011;49949;43.060;25.624;2023-11-21T07:38:41;121.25;;;32.33;;
63801;SDS011;49949;43.060;25.624;2023-11-21T07:41:07;105.43;;;31.30;;
63801;SDS011;49949;43.060;25.624;2023-11-21T07:43:34;129.60;;;32.47;;
63801;SDS011;49949;43.060;25.624;2023-11-21T07:46:03;118.68;;;34.30;;
63801;SDS011;49949;43.060;25.624;2023-11-21T07:48:32;99.88;;;34.60;;
63801;SDS011;49949;43.060;25.624;2023-11-21T07:50:59;189.25;;;38.45;;
63801;SDS011;49949;43.060;25.624;2023-11-21T07:53:28;103.68;;;34.13;;
63801;SDS011;49949;43.060;25.624;2023-11-21T07:55:55;121.93;;;33.88;;
63801;SDS011;49949;43.060;25.624;2023-11-21T07:58:27;153.57;;;37.72;;
63801;SDS011;49949;43.060;25.624;2023-11-21T08:00:53;149.45;;;39.38;;
63801;SDS011;49949;43.060;25.624;2023-11-21T08:03:19;145.43;;;36.00;;
63801;SDS011;49949;43.060;25.624;2023-11-21T08:05:45;159.70;;;35.60;;
63801;SDS011;49949;43.060;25.624;2023-11-21T08:08:10;109.95;;;33.53;;
63801;SDS011;49949;43.060;25.624;2023-11-21T08:10:36;100.13;;;34.92;;
63801;SDS011;49949;43.060;25.624;2023-11-21T08:13:02;103.28;;;35.15;;
63801;SDS011;49949;43.060;25.624;2023-11-21T08:15:29;91.72;;;32.92;;
63801;SDS011;49949;43.060;25.624;2023-11-21T08:17:56;142.38;;;36.50;;
63801;SDS011;49949;43.060;25.624;2023-11-21T08:20:23;109.80;;;39.95;;
63801;SDS011;49949;43.060;25.624;2023-11-21T08:22:50;150.77;;;48.97;;
63801;SDS011;49949;43.060;25.624;2023-11-21T08:25:17;172.40;;;53.95;;
63801;SDS011;49949;43.060;25.624;2023-11-21T08:27:45;166.68;;;52.58;;
63801;SDS011;49949;43.060;25.624;2023-11-21T08:30:11;167.20;;;52.17;;
63801;SDS011;49949;43.060;25.624;2023-11-21T08:32:39;130.38;;;46.28;;
63801;SDS011;49949;43.060;25.624;2023-11-21T08:35:06;119.43;;;42.80;;
63801;SDS011;49949;43.060;25.624;2023-11-21T08:37:32;113.63;;;44.70;;
63801;SDS011;49949;43.060;25.624;2023-11-21T08:40:02;127.60;;;42.83;;
63801;SDS011;49949;43.060;25.624;2023-11-21T08:42:34;92.10;;;35.58;;
63801;SDS011;49949;43.060;25.624;2023-11-21T08:45:01;118.40;;;35.28;;
63801;SDS011;49949;43.060;25.624;2023-11-21T08:47:26;105.88;;;36.58;;
63801;SDS011;49949;43.060;25.624;2023-11-21T08:49:52;73.28;;;25.55;;
63801;SDS011;49949;43.060;25.624;2023-11-21T08:52:18;70.43;;;22.70;;
63801;SDS011;49949;43.060;25.624;2023-11-21T08:54:47;64.85;;;23.67;;
63801;SDS011;49949;43.060;25.624;2023-11-21T08:57:14;94.75;;;26.10;;
63801;SDS011;49949;43.060;25.624;2023-11-21T08:59:40;94.20;;;24.92;;
63801;SDS011;49949;43.060;25.624;2023-11-21T09:02:06;74.88;;;19.83;;
63801;SDS011;49949;43.060;25.624;2023-11-21T09:04:33;61.65;;;19.17;;
63801;SDS011;49949;43.060;25.624;2023-11-21T09:06:58;55.13;;;20.33;;
63801;SDS011;49949;43.060;25.624;2023-11-21T09:09:25;58.92;;;19.65;;
63801;SDS011;49949;43.060;25.624;2023-11-21T09:11:50;58.33;;;17.73;;
63801;SDS011;49949;43.060;25.624;2023-11-21T09:14:16;86.90;;;16.83;;
63801;SDS011;49949;43.060;25.624;2023-11-21T09:16:42;35.28;;;11.00;;
63801;SDS011;49949;43.060;25.624;2023-11-21T09:19:08;52.45;;;10.35;;
63801;SDS011;49949;43.060;25.624;2023-11-21T09:21:34;26.88;;;9.90;;
63801;SDS011;49949;43.060;25.624;2023-11-21T09:24:00;22.30;;;8.85;;
63801;SDS011;49949;43.060;25.624;2023-11-21T09:26:27;20.27;;;8.05;;
63801;SDS011;49949;43.060;25.624;2023-11-21T09:28:55;26.88;;;8.85;;
63801;SDS011;49949;43.060;25.624;2023-11-21T09:31:21;58.45;;;11.40;;
63801;SDS011;49949;43.060;25.624;2023-11-21T09:33:48;24.77;;;10.52;;
63801;SDS011;49949;43.060;25.624;2023-11-21T09:36:14;35.38;;;8.85;;
63801;SDS011;49949;43.060;25.624;2023-11-21T09:38:40;24.90;;;8.95;;
63801;SDS011;49949;43.060;25.624;2023-11-21T09:41:11;25.95;;;9.40;;
63801;SDS011;49949;43.060;25.624;2023-11-21T09:43:46;43.67;;;9.32;;
63801;SDS011;49949;43.060;25.624;2023-11-21T09:46:15;32.97;;;8.07;;
63801;SDS011;49949;43.060;25.624;2023-11-21T09:48:48;23.08;;;7.40;;
63801;SDS011;49949;43.060;25.624;2023-11-21T09:51:18;28.80;;;7.05;;
63801;SDS011;49949;43.060;25.624;2023-11-21T09:53:47;20.00;;;7.10;;
63801;SDS011;49949;43.060;25.624;2023-11-21T09:56:17;22.55;;;6.72;;
63801;SDS011;49949;43.060;25.624;2023-11-21T09:58:50;23.90;;;6.85;;
63801;SDS011;49949;43.060;25.624;2023-11-21T10:01:17;19.38;;;6.63;;
63801;SDS011;49949;43.060;25.624;2023-11-21T10:03:44;29.63;;;6.95;;
63801;SDS011;49949;43.060;25.624;2023-11-21T10:06:10;12.00;;;4.20;;
63801;SDS011;49949;43.060;25.624;2023-11-21T10:08:39;13.68;;;5.40;;
63801;SDS011;49949;43.060;25.624;2023-11-21T10:11:06;11.10;;;4.70;;
63801;SDS011;49949;43.060;25.624;2023-11-21T10:13:36;19.35;;;4.25;;
63801;SDS011;49949;43.060;25.624;2023-11-21T10:16:03;5.32;;;3.60;;
63801;SDS011;49949;43.060;25.624;2023-11-21T10:18:31;9.27;;;3.60;;
63801;SDS011;49949;43.060;25.624;2023-11-21T10:20:59;5.88;;;3.65;;
63801;SDS011;49949;43.060;25.624;2023-11-21T10:23:25;16.10;;;3.83;;
63801;SDS011;49949;43.060;25.624;2023-11-21T10:25:52;13.18;;;4.43;;
63801;SDS011;49949;43.060;25.624;2023-11-21T10:28:20;16.05;;;5.78;;
63801;SDS011;49949;43.060;25.624;2023-11-21T10:30:46;37.15;;;5.82;;
63801;SDS011;49949;43.060;25.624;2023-11-21T10:33:12;59.40;;;6.28;;
63801;SDS011;49949;43.060;25.624;2023-11-21T10:38:12;36.67;;;11.13;;
63801;SDS011;49949;43.060;25.624;2023-11-21T10:40:39;31.73;;;7.90;;
63801;SDS011;49949;43.060;25.624;2023-11-21T10:43:07;22.70;;;8.13;;
63801;SDS011;49949;43.060;25.624;2023-11-21T10:45:34;27.77;;;7.90;;
63801;SDS011;49949;43.060;25.624;2023-11-21T10:48:04;24.35;;;9.98;;
63801;SDS011;49949;43.060;25.624;2023-11-21T10:50:33;31.00;;;9.20;;
63801;SDS011;49949;43.060;25.624;2023-11-21T10:53:01;35.65;;;10.52;;
63801;SDS011;49949;43.060;25.624;2023-11-21T10:55:30;73.95;;;11.50;;
63801;SDS011;49949;43.060;25.624;2023-11-21T10:58:01;104.07;;;13.52;;
63801;SDS011;49949;43.060;25.624;2023-11-21T11:00:29;180.07;;;13.90;;
63801;SDS011;49949;43.060;25.624;2023-11-21T11:02:55;8.85;;;3.55;;
63801;SDS011;49949;43.060;25.624;2023-11-21T11:05:25;11.00;;;2.85;;
63801;SDS011;49949;43.060;25.624;2023-11-21T11:08:04;4.85;;;1.90;;
63801;SDS011;49949;43.060;25.624;2023-11-21T11:10:31;1.65;;;1.35;;
63801;SDS011;49949;43.060;25.624;2023-11-21T11:12:57;28.40;;;2.22;;
63801;SDS011;49949;43.060;25.624;2023-11-21T11:15:24;1.67;;;0.70;;
63801;SDS011;49949;43.060;25.624;2023-11-21T11:17:52;5.25;;;1.00;;
63801;SDS011;49949;43.060;25.624;2023-11-21T11:20:22;5.30;;;1.17;;
63801;SDS011;49949;43.060;25.624;2023-11-21T11:28:37;1.83;;;0.63;;
63801;SDS011;49949;43.060;25.624;2023-11-21T11:33:58;8.27;;;0.65;;
63801;SDS011;49949;43.060;25.624;2023-11-21T11:36:48;3.70;;;0.95;;
63801;SDS011;49949;43.060;25.624;2023-11-21T11:39:30;7.55;;;1.17;;
63801;SDS011;49949;43.060;25.624;2023-11-21T11:44:48;2.08;;;0.90;;
63801;SDS011;49949;43.060;25.624;2023-11-21T11:47:21;1.55;;;0.98;;
63801;SDS011;49949;43.060;25.624;2023-11-21T11:50:02;1.98;;;0.90;;
63801;SDS011;49949;43.060;25.624;2023-11-21T11:52:41;1.38;;;1.02;;
63801;SDS011;49949;43.060;25.624;2023-11-21T11:55:11;1.80;;;1.00;;
63801;SDS011;49949;43.060;25.624;2023-11-21T11:57:43;1.40;;;0.60;;
63801;SDS011;49949;43.060;25.624;2023-11-21T12:00:19;1.42;;;0.90;;
63801;SDS011;49949;43.060;25.624;2023-11-21T12:02:53;1.77;;;0.90;;
63801;SDS011;49949;43.060;25.624;2023-11-21T12:07:51;2.78;;;0.88;;
63801;SDS011;49949;43.060;25.624;2023-11-21T12:10:19;3.80;;;1.08;;
63801;SDS011;49949;43.060;25.624;2023-11-21T12:12:55;2.55;;;1.02;;
63801;SDS011;49949;43.060;25.624;2023-11-21T12:15:26;5.07;;;1.10;;
63801;SDS011;49949;43.060;25.624;2023-11-21T12:17:55;4.75;;;1.02;;
63801;SDS011;49949;43.060;25.624;2023-11-21T12:20:22;1.10;;;0.80;;
63801;SDS011;49949;43.060;25.624;2023-11-21T12:22:49;0.50;;;0.50;;
63801;SDS011;49949;43.060;25.624;2023-11-21T12:25:20;2.10;;;1.10;;
63801;SDS011;49949;43.060;25.624;2023-11-21T12:27:50;0.82;;;0.70;;
63801;SDS011;49949;43.060;25.624;2023-11-21T12:30:20;3.42;;;0.90;;
63801;SDS011;49949;43.060;25.624;2023-11-21T12:32:48;1.23;;;0.45;;
63801;SDS011;49949;43.060;25.624;2023-11-21T12:35:22;3.67;;;0.65;;
63801;SDS011;49949;43.060;25.624;2023-11-21T12:37:50;0.90;;;0.90;;
63801;SDS011;49949;43.060;25.624;2023-11-21T12:40:17;0.90;;;0.77;;
63801;SDS011;49949;43.060;25.624;2023-11-21T12:42:44;1.67;;;0.90;;
63801;SDS011;49949;43.060;25.624;2023-11-21T12:47:45;1.17;;;0.70;;
63801;SDS011;49949;43.060;25.624;2023-11-21T12:50:15;0.88;;;0.88;;
63801;SDS011;49949;43.060;25.624;2023-11-21T12:52:46;1.60;;;1.20;;
63801;SDS011;49949;43.060;25.624;2023-11-21T12:55:16;1.92;;;0.80;;
63801;SDS011;49949;43.060;25.624;2023-11-21T12:57:43;3.40;;;0.88;;
63801;SDS011;49949;43.060;25.624;2023-11-21T13:00:10;5.57;;;1.00;;
63801;SDS011;49949;43.060;25.624;2023-11-21T13:02:40;1.73;;;0.98;;
63801;SDS011;49949;43.060;25.624;2023-11-21T13:05:08;1.60;;;0.82;;
63801;SDS011;49949;43.060;25.624;2023-11-21T13:07:43;0.98;;;0.70;;
63801;SDS011;49949;43.060;25.624;2023-11-21T13:10:12;1.13;;;0.98;;
63801;SDS011;49949;43.060;25.624;2023-11-21T13:12:45;2.58;;;0.90;;
63801;SDS011;49949;43.060;25.624;2023-11-21T13:15:14;2.22;;;0.70;;
63801;SDS011;49949;43.060;25.624;2023-11-21T13:17:43;1.30;;;0.98;;
63801;SDS011;49949;43.060;25.624;2023-11-21T13:20:12;5.82;;;1.08;;
63801;SDS011;49949;43.060;25.624;2023-11-21T13:22:50;10.00;;;4.63;;
63801;SDS011;49949;43.060;25.624;2023-11-21T13:25:22;2.85;;;1.55;;
63801;SDS011;49949;43.060;25.624;2023-11-21T13:27:49;2.58;;;1.20;;
63801;SDS011;49949;43.060;25.624;2023-11-21T13:30:16;0.95;;;0.90;;
63801;SDS011;49949;43.060;25.624;2023-11-21T13:32:45;9.27;;;1.42;;
63801;SDS011;49949;43.060;25.624;2023-11-21T13:35:12;1.85;;;1.17;;
63801;SDS011;49949;43.060;25.624;2023-11-21T13:37:48;5.35;;;1.40;;
63801;SDS011;49949;43.060;25.624;2023-11-21T13:40:19;4.95;;;1.00;;
63801;SDS011;49949;43.060;25.624;2023-11-21T13:42:47;5.70;;;1.20;;
63801;SDS011;49949;43.060;25.624;2023-11-21T13:45:14;1.27;;;1.05;;
63801;SDS011;49949;43.060;25.624;2023-11-21T13:47:41;1.02;;;0.80;;
63801;SDS011;49949;43.060;25.624;2023-11-21T13:50:07;0.90;;;0.90;;
63801;SDS011;49949;43.060;25.624;2023-11-21T13:52:42;1.05;;;0.70;;
63801;SDS011;49949;43.060;25.624;2023-11-21T13:55:10;3.70;;;0.98;;
63801;SDS011;49949;43.060;25.624;2023-11-21T13:57:41;0.95;;;0.90;;
63801;SDS011;49949;43.060;25.624;2023-11-21T14:00:14;1.10;;;1.00;;
63801;SDS011;49949;43.060;25.624;2023-11-21T14:03:01;1.05;;;0.90;;
63801;SDS011;49949;43.060;25.624;2023-11-21T14:05:27;1.35;;;1.00;;
63801;SDS011;49949;43.060;25.624;2023-11-21T14:07:57;1.42;;;1.00;;
63801;SDS011;49949;43.060;25.624;2023-11-21T14:10:32;2.22;;;1.10;;
63801;SDS011;49949;43.060;25.624;2023-11-21T14:13:05;4.75;;;1.05;;
63801;SDS011;49949;43.060;25.624;2023-11-21T14:15:31;1.27;;;1.05;;
63801;SDS011;49949;43.060;25.624;2023-11-21T14:18:06;1.55;;;1.00;;
63801;SDS011;49949;43.060;25.624;2023-11-21T14:20:33;1.13;;;0.95;;
63801;SDS011;49949;43.060;25.624;2023-11-21T14:23:01;0.85;;;0.85;;
63801;SDS011;49949;43.060;25.624;2023-11-21T14:25:27;2.75;;;1.10;;
63801;SDS011;49949;43.060;25.624;2023-11-21T14:27:53;1.88;;;1.00;;
63801;SDS011;49949;43.060;25.624;2023-11-21T14:30:19;1.05;;;0.93;;
63801;SDS011;49949;43.060;25.624;2023-11-21T14:32:47;2.13;;;1.02;;
63801;SDS011;49949;43.060;25.624;2023-11-21T14:35:13;1.20;;;1.10;;